createdAt,value
2018-07-14T00:01:09.923Z,6.07
2018-07-14T00:03:37.820Z,7.07
2018-07-14T00:06:05.734Z,6.87
2018-07-14T00:08:33.631Z,6.40
2018-07-14T00:11:01.551Z,6.93
2018-07-14T00:13:29.445Z,6.70
2018-07-14T00:15:57.330Z,7.40
2018-07-14T00:18:25.223Z,8.03
2018-07-14T00:20:53.498Z,6.27
2018-07-14T00:23:21.374Z,6.43
2018-07-14T00:25:54.943Z,6.07
2018-07-14T00:28:22.825Z,8.60
2018-07-14T00:30:50.722Z,6.43
2018-07-14T00:33:18.615Z,6.83
2018-07-14T00:35:46.511Z,6.60
2018-07-14T00:38:14.422Z,9.90
2018-07-14T00:40:42.332Z,7.23
2018-07-14T00:43:10.292Z,10.63
2018-07-14T00:45:38.220Z,6.20
2018-07-14T00:48:06.122Z,9.13
2018-07-14T00:50:33.998Z,7.20
2018-07-14T00:53:01.931Z,5.43
2018-07-14T00:55:29.802Z,6.43
2018-07-14T00:57:57.682Z,7.87
2018-07-14T01:00:25.566Z,6.33
2018-07-14T01:02:53.470Z,9.33
2018-07-14T01:05:21.435Z,8.07
2018-07-14T01:07:49.324Z,7.03
2018-07-14T01:10:17.230Z,7.20
2018-07-14T01:12:45.246Z,7.80
2018-07-14T01:15:13.319Z,8.07
2018-07-14T01:17:41.436Z,6.37
2018-07-14T01:20:09.339Z,7.07
2018-07-14T01:22:37.315Z,10.70
2018-07-14T01:25:05.575Z,9.40
2018-07-14T01:27:33.554Z,8.80
2018-07-14T01:30:01.655Z,8.17
2018-07-14T01:32:29.693Z,7.03
2018-07-14T01:34:57.766Z,6.60
2018-07-14T01:37:25.738Z,7.30
2018-07-14T01:39:53.706Z,7.90
2018-07-14T01:42:21.683Z,7.20
2018-07-14T01:44:49.754Z,9.03
2018-07-14T01:47:17.814Z,7.90
2018-07-14T01:49:45.893Z,7.30
2018-07-14T01:52:13.770Z,9.20
2018-07-14T01:54:41.654Z,6.77
2018-07-14T01:57:09.552Z,7.93
2018-07-14T01:59:37.464Z,7.07
2018-07-14T02:02:05.355Z,7.10
2018-07-14T02:04:33.250Z,7.80
2018-07-14T02:07:01.150Z,7.67
2018-07-14T02:09:29.038Z,7.30
2018-07-14T02:11:56.934Z,10.13
2018-07-14T02:14:24.823Z,9.50
2018-07-14T02:16:52.767Z,6.73
2018-07-14T02:19:20.679Z,7.47
2018-07-14T02:21:48.591Z,8.73
2018-07-14T02:24:16.475Z,10.57
2018-07-14T02:26:44.378Z,9.17
2018-07-14T02:29:12.295Z,7.93
2018-07-14T02:31:40.177Z,9.57
2018-07-14T02:34:08.055Z,7.37
2018-07-14T02:36:35.943Z,7.90
2018-07-14T02:39:04.323Z,7.50
2018-07-14T02:41:32.243Z,8.47
2018-07-14T02:44:00.133Z,9.37
2018-07-14T02:46:28.023Z,8.60
2018-07-14T02:48:55.918Z,7.73
2018-07-14T02:51:23.806Z,8.57
2018-07-14T02:53:51.682Z,8.80
2018-07-14T02:56:19.570Z,8.60
2018-07-14T02:58:47.434Z,7.47
2018-07-14T03:01:15.333Z,8.27
2018-07-14T03:03:43.226Z,8.33
2018-07-14T03:06:11.122Z,9.13
2018-07-14T03:08:39.030Z,8.10
2018-07-14T03:11:06.915Z,11.17
2018-07-14T03:13:34.827Z,8.07
2018-07-14T03:16:02.714Z,7.70
2018-07-14T03:18:30.602Z,8.07
2018-07-14T03:20:58.480Z,8.87
2018-07-14T03:23:26.362Z,8.07
2018-07-14T03:25:54.314Z,10.27
2018-07-14T03:28:22.223Z,8.63
2018-07-14T03:30:50.102Z,8.00
2018-07-14T03:33:18.139Z,9.17
2018-07-14T03:35:46.016Z,9.20
2018-07-14T03:38:13.930Z,7.87
2018-07-14T03:40:41.829Z,8.00
2018-07-14T03:43:09.714Z,7.93
2018-07-14T03:45:37.595Z,7.63
2018-07-14T03:48:05.504Z,9.97
2018-07-14T03:50:33.399Z,7.87
2018-07-14T03:53:01.275Z,9.83
2018-07-14T03:55:29.154Z,9.03
2018-07-14T03:57:57.026Z,8.30
2018-07-14T04:00:24.966Z,9.50
2018-07-14T04:02:52.887Z,9.10
2018-07-14T04:05:20.759Z,8.67
2018-07-14T04:07:48.654Z,9.03
2018-07-14T04:10:16.530Z,8.30
2018-07-14T04:12:44.407Z,8.43
2018-07-14T04:15:12.290Z,10.37
2018-07-14T04:17:40.186Z,12.47
2018-07-14T04:20:08.063Z,14.60
2018-07-14T04:22:35.958Z,10.90
2018-07-14T04:25:03.850Z,10.13
2018-07-14T04:27:31.816Z,10.13
2018-07-14T04:29:59.699Z,9.80
2018-07-14T04:32:27.575Z,8.13
2018-07-14T04:34:55.455Z,8.30
2018-07-14T04:37:23.365Z,10.77
2018-07-14T04:39:51.260Z,9.90
2018-07-14T04:42:19.179Z,7.93
2018-07-14T04:44:47.062Z,8.00
2018-07-14T04:47:14.952Z,8.20
2018-07-14T04:49:42.827Z,8.97
2018-07-14T04:52:10.710Z,9.10
2018-07-14T04:54:38.590Z,10.43
2018-07-14T04:57:06.492Z,14.00
2018-07-14T04:59:34.391Z,12.03
2018-07-14T05:02:02.288Z,14.30
2018-07-14T05:04:30.202Z,13.23
2018-07-14T05:06:58.086Z,12.03
2018-07-14T05:09:25.992Z,11.77
2018-07-14T05:11:53.950Z,12.37
2018-07-14T05:14:21.843Z,13.17
2018-07-14T05:16:49.727Z,12.40
2018-07-14T05:19:17.606Z,11.30
2018-07-14T05:21:45.499Z,13.43
2018-07-14T05:24:13.404Z,12.03
2018-07-14T05:26:41.299Z,12.73
2018-07-14T05:29:09.218Z,12.93
2018-07-14T05:31:37.123Z,11.93
2018-07-14T05:34:05.274Z,14.33
2018-07-14T05:36:33.146Z,11.57
2018-07-14T05:39:01.058Z,13.73
2018-07-14T05:41:29.021Z,12.50
2018-07-14T05:43:56.962Z,11.87
2018-07-14T05:46:24.802Z,14.70
2018-07-14T05:48:52.708Z,13.20
2018-07-14T05:51:20.600Z,13.57
2018-07-14T05:53:48.514Z,11.43
2018-07-14T05:56:16.534Z,11.20
2018-07-14T05:58:44.566Z,11.37
2018-07-14T06:01:12.639Z,12.13
2018-07-14T06:03:40.748Z,10.30
2018-07-14T06:06:08.806Z,10.50
2018-07-14T06:08:36.703Z,10.13
2018-07-14T06:11:04.598Z,9.47
2018-07-14T06:13:32.486Z,12.97
2018-07-14T06:16:00.382Z,10.63
2018-07-14T06:18:28.308Z,8.80
2018-07-14T06:20:56.190Z,9.57
2018-07-14T06:23:24.094Z,12.63
2018-07-14T06:25:51.976Z,10.03
2018-07-14T06:28:20.186Z,14.00
2018-07-14T06:30:48.295Z,9.67
2018-07-14T06:33:16.354Z,13.10
2018-07-14T06:35:44.249Z,9.47
2018-07-14T06:38:12.170Z,7.97
2018-07-14T06:40:40.066Z,7.77
2018-07-14T06:43:07.962Z,9.53
2018-07-14T06:45:35.847Z,8.33
2018-07-14T06:48:03.736Z,7.90
2018-07-14T06:50:31.619Z,9.57
2018-07-14T06:52:59.502Z,8.73
2018-07-14T06:55:27.404Z,9.10
2018-07-14T06:57:55.319Z,8.70
2018-07-14T07:00:23.238Z,9.93
2018-07-14T07:02:51.154Z,9.53
2018-07-14T07:05:19.052Z,7.17
2018-07-14T07:07:46.934Z,6.70
2018-07-14T07:10:14.823Z,7.70
2018-07-14T07:12:42.704Z,7.03
2018-07-14T07:15:10.594Z,6.90
2018-07-14T07:17:38.487Z,7.63
2018-07-14T07:20:06.374Z,7.77
2018-07-14T07:22:34.303Z,9.63
2018-07-14T07:25:02.248Z,8.37
2018-07-14T07:27:30.170Z,8.73
2018-07-14T07:29:58.068Z,6.60
2018-07-14T07:32:25.954Z,7.57
2018-07-14T07:34:53.847Z,7.73
2018-07-14T07:37:21.751Z,6.17
2018-07-14T07:39:49.651Z,8.67
2018-07-14T07:42:17.626Z,6.17
2018-07-14T07:44:47.625Z,9.13
2018-07-14T07:47:15.539Z,5.93
2018-07-14T07:49:43.450Z,8.17
2018-07-14T07:52:11.366Z,8.23
2018-07-14T07:54:39.335Z,7.20
2018-07-14T07:57:07.206Z,8.00
2018-07-14T07:59:35.111Z,6.53
2018-07-14T08:02:03.010Z,8.97
2018-07-14T08:04:30.994Z,8.13
2018-07-14T08:06:58.966Z,6.53
2018-07-14T08:09:26.920Z,6.83
2018-07-14T08:11:54.854Z,6.03
2018-07-14T08:14:22.791Z,5.93
2018-07-14T08:16:50.878Z,6.00
2018-07-14T08:19:18.777Z,5.70
2018-07-14T08:21:46.775Z,5.47
2018-07-14T08:24:14.691Z,5.60
2018-07-14T08:26:42.619Z,7.43
2018-07-14T08:29:10.503Z,5.90
2018-07-14T08:31:38.439Z,5.50
2018-07-14T08:34:06.623Z,6.20
2018-07-14T08:36:34.584Z,5.57
2018-07-14T08:39:02.699Z,6.47
2018-07-14T08:41:31.594Z,8.53
2018-07-14T08:44:00.793Z,6.53
2018-07-14T08:46:28.688Z,6.83
2018-07-14T08:48:56.590Z,5.07
2018-07-14T08:51:24.516Z,6.70
2018-07-14T08:53:52.410Z,6.07
2018-07-14T08:56:20.303Z,7.43
2018-07-14T08:58:48.274Z,6.20
2018-07-14T09:01:16.175Z,7.67
2018-07-14T09:03:44.101Z,8.43
2018-07-14T09:06:11.974Z,6.07
2018-07-14T09:08:41.162Z,6.30
2018-07-14T09:11:22.405Z,6.77
2018-07-14T09:13:51.564Z,6.03
2018-07-14T09:16:19.469Z,8.57
2018-07-14T09:18:47.408Z,6.43
2018-07-14T09:21:15.270Z,7.00
2018-07-14T09:23:43.369Z,6.93
2018-07-14T09:26:11.277Z,7.00
2018-07-14T09:28:39.155Z,5.73
2018-07-14T09:31:07.039Z,9.77
2018-07-14T09:33:34.961Z,8.37
2018-07-14T09:36:02.854Z,6.57
2018-07-14T09:38:30.734Z,8.17
2018-07-14T09:40:58.614Z,6.93
2018-07-14T09:43:26.498Z,7.40
2018-07-14T09:45:54.382Z,8.40
2018-07-14T09:48:22.300Z,6.30
2018-07-14T09:50:50.199Z,6.83
2018-07-14T09:53:18.175Z,5.93
2018-07-14T09:55:46.054Z,6.00
2018-07-14T09:58:13.947Z,6.73
2018-07-14T10:00:47.390Z,5.70
2018-07-14T10:03:15.363Z,7.47
2018-07-14T10:05:43.245Z,7.53
2018-07-14T10:08:11.119Z,5.10
2018-07-14T10:10:39.047Z,4.50
2018-07-14T10:13:06.976Z,10.40
2018-07-14T10:15:34.890Z,6.83
2018-07-14T10:18:02.786Z,18.70
2018-07-14T10:20:30.671Z,28.07
2018-07-14T10:22:58.562Z,16.83
2018-07-14T10:25:26.520Z,8.67
2018-07-14T10:27:54.403Z,13.53
2018-07-14T10:30:22.293Z,10.20
2018-07-14T10:32:51.878Z,9.00
2018-07-14T10:35:20.771Z,8.17
2018-07-14T10:37:49.646Z,8.00
2018-07-14T10:40:17.654Z,8.37
2018-07-14T10:42:45.611Z,10.30
2018-07-14T10:45:14.708Z,8.67
2018-07-14T10:47:42.631Z,8.13
2018-07-14T10:50:10.562Z,6.80
2018-07-14T10:52:39.266Z,6.13
2018-07-14T10:55:07.230Z,5.77
2018-07-14T10:57:36.127Z,7.47
2018-07-14T11:00:04.823Z,7.20
2018-07-14T11:02:32.760Z,7.27
2018-07-14T11:05:00.694Z,8.93
2018-07-14T11:07:28.602Z,9.97
2018-07-14T11:09:57.138Z,10.27
2018-07-14T11:12:25.476Z,11.13
2018-07-14T11:14:54.003Z,9.40
2018-07-14T11:17:22.075Z,8.07
2018-07-14T11:19:49.958Z,7.50
2018-07-14T11:22:17.862Z,8.33
2018-07-14T11:24:46.070Z,8.97
2018-07-14T11:27:14.102Z,7.30
2018-07-14T11:29:42.058Z,6.80
2018-07-14T11:32:09.939Z,7.00
2018-07-14T11:34:37.935Z,6.80
2018-07-14T11:37:05.810Z,7.73
2018-07-14T11:39:33.818Z,5.93
2018-07-14T11:42:01.743Z,6.33
2018-07-14T11:44:29.662Z,6.40
2018-07-14T11:46:57.680Z,5.00
2018-07-14T11:49:25.674Z,5.87
2018-07-14T11:51:53.662Z,7.77
2018-07-14T11:54:21.642Z,5.73
2018-07-14T11:56:49.582Z,6.07
2018-07-14T11:59:17.510Z,5.60
2018-07-14T12:01:45.458Z,5.97
2018-07-14T12:04:13.351Z,6.70
2018-07-14T12:06:41.315Z,5.40
2018-07-14T12:09:09.279Z,4.73
2018-07-14T12:11:37.307Z,5.20
2018-07-14T12:14:05.314Z,4.63
2018-07-14T12:16:35.485Z,5.30
2018-07-14T12:19:03.389Z,2.83
2018-07-14T12:21:31.326Z,3.20
2018-07-14T12:23:59.422Z,3.40
2018-07-14T12:26:27.322Z,3.50
2018-07-14T12:28:55.238Z,3.23
2018-07-14T12:31:23.325Z,3.53
2018-07-14T12:33:51.322Z,5.13
2018-07-14T12:36:19.255Z,4.27
2018-07-14T12:38:47.395Z,5.03
2018-07-14T12:41:15.406Z,5.23
2018-07-14T12:43:43.254Z,3.13
2018-07-14T12:46:11.162Z,3.70
2018-07-14T12:48:39.054Z,3.87
2018-07-14T12:51:07.037Z,3.47
2018-07-14T12:53:34.989Z,4.27
2018-07-14T12:56:02.960Z,4.30
2018-07-14T12:58:30.966Z,4.47
2018-07-14T13:00:58.849Z,4.10
2018-07-14T13:03:26.748Z,5.17
2018-07-14T13:05:54.646Z,3.80
2018-07-14T13:08:22.552Z,4.63
2018-07-14T13:10:50.455Z,3.53
2018-07-14T13:13:18.503Z,3.40
2018-07-14T13:15:46.602Z,5.43
2018-07-14T13:18:14.506Z,4.17
2018-07-14T13:20:42.387Z,5.47
2018-07-14T13:23:10.323Z,6.40
2018-07-14T13:25:38.247Z,6.10
2018-07-14T13:28:06.142Z,4.83
2018-07-14T13:30:34.111Z,4.57
2018-07-14T13:33:02.110Z,4.27
2018-07-14T13:35:30.044Z,5.00
2018-07-14T13:37:57.940Z,4.60
2018-07-14T13:40:25.930Z,4.50
2018-07-14T13:42:53.854Z,4.37
2018-07-14T13:45:21.822Z,4.20
2018-07-14T13:47:49.738Z,6.03
2018-07-14T13:50:17.632Z,6.80
2018-07-14T13:52:45.574Z,6.13
2018-07-14T13:55:13.491Z,5.03
2018-07-14T13:57:41.462Z,4.77
2018-07-14T14:00:09.677Z,7.20
2018-07-14T14:02:37.770Z,5.03
2018-07-14T14:05:05.783Z,4.80
2018-07-14T14:07:34.107Z,4.47
2018-07-14T14:10:02.055Z,4.67
2018-07-14T14:12:30.026Z,5.73
2018-07-14T14:14:57.958Z,4.27
2018-07-14T14:17:25.870Z,6.33
2018-07-14T14:19:53.858Z,4.10
2018-07-14T14:22:21.728Z,6.90
2018-07-14T14:24:49.649Z,5.97
2018-07-14T14:27:17.615Z,4.53
2018-07-14T14:29:45.503Z,4.50
2018-07-14T14:32:13.430Z,4.23
2018-07-14T14:34:41.310Z,5.03
2018-07-14T14:37:09.232Z,5.17
2018-07-14T14:39:37.123Z,4.37
2018-07-14T14:42:05.026Z,4.37
2018-07-14T14:44:32.907Z,5.27
2018-07-14T14:47:00.799Z,5.50
2018-07-14T14:49:28.694Z,5.40
2018-07-14T14:51:57.797Z,5.87
2018-07-14T14:54:25.722Z,4.90
2018-07-14T14:56:53.666Z,5.27
2018-07-14T14:59:21.636Z,5.63
2018-07-14T15:01:49.602Z,5.00
2018-07-14T15:04:17.529Z,4.43
2018-07-14T15:06:45.526Z,5.50
2018-07-14T15:09:13.511Z,6.10
2018-07-14T15:11:41.426Z,4.37
2018-07-14T15:14:09.368Z,4.60
2018-07-14T15:16:37.406Z,4.30
2018-07-14T15:19:05.622Z,5.33
2018-07-14T15:21:33.530Z,4.50
2018-07-14T15:24:01.514Z,4.43
2018-07-14T15:26:29.698Z,4.90
2018-07-14T15:28:57.606Z,4.60
2018-07-14T15:31:28.098Z,4.73
2018-07-14T15:33:56.168Z,5.20
2018-07-14T15:36:24.078Z,4.33
2018-07-14T15:38:52.321Z,4.70
2018-07-14T15:41:40.821Z,4.17
2018-07-14T15:44:11.727Z,4.83
2018-07-14T15:46:39.651Z,6.33
2018-07-14T15:49:07.567Z,5.37
2018-07-14T15:51:36.138Z,4.47
2018-07-14T15:54:16.155Z,4.77
2018-07-14T15:56:45.631Z,4.30
2018-07-14T15:59:13.518Z,5.67
2018-07-14T16:01:41.442Z,4.67
2018-07-14T16:04:09.334Z,4.40
2018-07-14T16:06:37.214Z,5.10
2018-07-14T16:09:05.563Z,5.27
2018-07-14T16:11:33.486Z,4.57
2018-07-14T16:14:01.436Z,6.63
2018-07-14T16:16:29.351Z,4.53
2018-07-14T16:18:57.258Z,5.47
2018-07-14T16:21:25.186Z,4.60
2018-07-14T16:23:53.069Z,6.50
2018-07-14T16:26:21.023Z,5.30
2018-07-14T16:28:48.947Z,4.17
2018-07-14T16:31:16.838Z,4.77
2018-07-14T16:33:44.763Z,7.63
2018-07-14T16:36:12.651Z,4.73
2018-07-14T16:38:40.590Z,5.50
2018-07-14T16:41:08.470Z,5.50
2018-07-14T16:43:36.541Z,4.50
2018-07-14T16:46:04.458Z,5.77
2018-07-14T16:48:33.255Z,6.27
2018-07-14T16:51:01.192Z,6.10
2018-07-14T16:53:29.087Z,6.27
2018-07-14T16:55:57.058Z,5.40
2018-07-14T16:58:24.955Z,4.77
2018-07-14T17:00:52.855Z,6.43
2018-07-14T17:03:20.817Z,6.03
2018-07-14T17:05:48.762Z,4.60
2018-07-14T17:08:16.639Z,5.20
2018-07-14T17:10:44.526Z,6.37
2018-07-14T17:13:12.431Z,4.40
2018-07-14T17:15:40.521Z,4.93
2018-07-14T17:18:08.497Z,6.23
2018-07-14T17:20:36.391Z,8.13
2018-07-14T17:23:04.338Z,7.87
2018-07-14T17:25:32.255Z,4.73
2018-07-14T17:28:00.150Z,5.90
2018-07-14T17:30:28.062Z,4.43
2018-07-14T17:32:55.999Z,5.83
2018-07-14T17:35:23.884Z,5.67
2018-07-14T17:37:51.790Z,4.47
2018-07-14T17:40:19.691Z,4.20
2018-07-14T17:42:47.575Z,4.70
2018-07-14T17:45:15.462Z,4.67
2018-07-14T17:47:43.439Z,5.07
2018-07-14T17:50:11.347Z,5.30
2018-07-14T17:52:39.238Z,4.37
2018-07-14T17:55:07.159Z,7.40
2018-07-14T17:57:35.607Z,5.53
2018-07-14T18:00:03.555Z,5.17
2018-07-14T18:02:31.646Z,4.80
2018-07-14T18:04:59.550Z,4.67
2018-07-14T18:07:27.498Z,4.73
2018-07-14T18:09:55.406Z,4.43
2018-07-14T18:12:23.354Z,4.70
2018-07-14T18:14:51.308Z,4.47
2018-07-14T18:17:19.150Z,4.60
2018-07-14T18:19:47.079Z,4.80
2018-07-14T18:22:16.366Z,6.70
2018-07-14T18:24:44.271Z,4.83
2018-07-14T18:27:12.174Z,4.60
2018-07-14T18:29:40.122Z,7.03
2018-07-14T18:32:08.028Z,4.10
2018-07-14T18:34:35.938Z,5.70
2018-07-14T18:37:03.839Z,6.97
2018-07-14T18:39:31.731Z,6.67
2018-07-14T18:41:59.653Z,5.17
2018-07-14T18:44:27.544Z,5.03
2018-07-14T18:46:55.470Z,4.40
2018-07-14T18:49:23.527Z,5.23
2018-07-14T18:51:51.415Z,5.50
2018-07-14T18:54:19.303Z,4.73
2018-07-14T18:56:47.189Z,4.70
2018-07-14T18:59:15.086Z,4.57
2018-07-14T19:01:43.132Z,4.90
2018-07-14T19:04:11.047Z,5.87
2018-07-14T19:06:38.970Z,5.40
2018-07-14T19:09:06.883Z,5.00
2018-07-14T19:11:34.846Z,7.20
2018-07-14T19:14:03.157Z,5.07
2018-07-14T19:16:31.097Z,5.60
2018-07-14T19:18:58.994Z,8.03
2018-07-14T19:21:27.019Z,5.93
2018-07-14T19:23:54.948Z,5.60
2018-07-14T19:26:22.904Z,5.63
2018-07-14T19:28:50.764Z,7.73
2018-07-14T19:31:18.647Z,5.23
2018-07-14T19:33:46.534Z,6.67
2018-07-14T19:36:14.473Z,5.13
2018-07-14T19:38:42.558Z,6.83
2018-07-14T19:41:10.519Z,5.87
2018-07-14T19:43:38.449Z,5.90
2018-07-14T19:46:06.342Z,8.47
2018-07-14T19:48:34.282Z,5.87
2018-07-14T19:51:02.230Z,6.10
2018-07-14T19:53:30.132Z,8.63
2018-07-14T19:55:58.316Z,6.07
2018-07-14T19:58:26.141Z,8.63
2018-07-14T20:00:54.086Z,7.33
2018-07-14T20:03:22.012Z,7.03
2018-07-14T20:05:49.898Z,7.93
2018-07-14T20:08:17.808Z,6.60
2018-07-14T20:10:45.798Z,6.80
2018-07-14T20:13:13.719Z,8.23
2018-07-14T20:15:41.632Z,9.90
2018-07-14T20:18:09.538Z,7.23
2018-07-14T20:20:37.474Z,6.63
2018-07-14T20:23:05.354Z,8.07
2018-07-14T20:25:33.287Z,9.07
2018-07-14T20:28:01.247Z,9.30
2018-07-14T20:30:29.151Z,8.77
2018-07-14T20:32:57.046Z,9.70
2018-07-14T20:35:25.031Z,8.80
2018-07-14T20:37:52.934Z,8.47
2018-07-14T20:40:20.826Z,7.13
2018-07-14T20:42:48.714Z,7.73
2018-07-14T20:45:16.623Z,8.40
2018-07-14T20:47:44.519Z,9.33
2018-07-14T20:50:12.414Z,7.83
2018-07-14T20:52:40.319Z,9.03
2018-07-14T20:55:08.262Z,8.80
2018-07-14T20:57:36.227Z,8.50
2018-07-14T21:00:04.543Z,8.87
2018-07-14T21:02:32.514Z,10.60
2018-07-14T21:05:00.407Z,8.83
2018-07-14T21:07:28.302Z,12.13
2018-07-14T21:09:56.184Z,8.00
2018-07-14T21:12:24.165Z,10.33
2018-07-14T21:14:52.002Z,10.07
2018-07-14T21:17:19.882Z,8.33
2018-07-14T21:19:47.782Z,7.70
2018-07-14T21:22:15.667Z,10.23
2018-07-14T21:24:43.567Z,7.90
2018-07-14T21:27:11.494Z,10.97
2018-07-14T21:29:39.451Z,9.70
2018-07-14T21:32:07.343Z,9.97
2018-07-14T21:34:35.255Z,8.40
2018-07-14T21:37:03.136Z,10.17
2018-07-14T21:39:31.034Z,10.43
2018-07-14T21:41:58.915Z,11.27
2018-07-14T21:44:26.826Z,9.20
2018-07-14T21:46:54.706Z,8.67
2018-07-14T21:49:22.608Z,8.57
2018-07-14T21:51:50.731Z,9.00
2018-07-14T21:54:18.614Z,7.93
2018-07-14T21:56:46.501Z,9.53
2018-07-14T21:59:14.396Z,10.23
2018-07-14T22:01:47.770Z,7.70
2018-07-14T22:04:15.619Z,8.50
2018-07-14T22:06:43.515Z,7.87
2018-07-14T22:09:11.710Z,8.63
2018-07-14T22:11:39.651Z,8.60
2018-07-14T22:14:07.640Z,8.90
2018-07-14T22:16:35.711Z,8.97
2018-07-14T22:19:03.636Z,8.70
2018-07-14T22:21:31.550Z,7.93
2018-07-14T22:23:59.459Z,10.83
2018-07-14T22:26:27.343Z,9.43
2018-07-14T22:28:55.238Z,10.57
2018-07-14T22:31:23.142Z,11.80
2018-07-14T22:33:51.067Z,9.17
2018-07-14T22:36:18.950Z,9.43
2018-07-14T22:38:46.834Z,9.27
2018-07-14T22:41:14.706Z,11.67
2018-07-14T22:43:42.542Z,9.23
2018-07-14T22:46:10.538Z,9.53
2018-07-14T22:48:38.418Z,9.13
2018-07-14T22:51:06.379Z,8.80
2018-07-14T22:53:34.289Z,8.50
2018-07-14T22:56:02.211Z,8.67
2018-07-14T22:58:30.130Z,9.60
2018-07-14T23:00:58.015Z,9.27
2018-07-14T23:03:26.199Z,8.97
2018-07-14T23:05:54.098Z,10.13
2018-07-14T23:08:22.174Z,10.17
2018-07-14T23:10:50.091Z,12.80
2018-07-14T23:13:18.299Z,9.03
2018-07-14T23:15:46.266Z,9.70
2018-07-14T23:18:14.155Z,11.83
2018-07-14T23:20:42.035Z,8.80
2018-07-14T23:23:09.974Z,8.83
2018-07-14T23:25:37.868Z,9.80
2018-07-14T23:28:05.991Z,9.47
2018-07-14T23:30:33.943Z,10.07
2018-07-14T23:33:01.819Z,9.13
2018-07-14T23:35:29.710Z,10.13
2018-07-14T23:37:57.590Z,11.93
2018-07-14T23:40:25.482Z,9.80
2018-07-14T23:42:53.379Z,11.90
2018-07-14T23:45:21.286Z,10.03
2018-07-14T23:47:49.214Z,11.23
2018-07-14T23:50:17.103Z,12.37
2018-07-14T23:52:45.007Z,12.93
2018-07-14T23:55:12.899Z,10.43
2018-07-14T23:57:40.770Z,10.53
